Flight Track Log - Related Links

Times and Time Zones

All times are in EDT time to prevent confusion due to time zone crossing. See the N789RP flight status page for this flight to view local times or setup timezone preferences in your user account.

Time Position Orientation Groundspeed Altitude Reporting Facility
EDT Latitude Longitude Course Direction KTS MPH feet Rate Location/Type
Sat 05:17:54 PM 46.7025 -68.0900 195° South 185 213 2,200  Level Boston Center
Sat 05:18:54 PM 46.6636 -68.1053 194° South 100 115 3,400 1,150 Climbing Boston Center
Sat 05:19:54 PM 46.6308 -68.1169 197° South 107 123 4,500 1,000 Climbing Boston Center
Sat 05:20:54 PM 46.5981 -68.1314 193° South 120 138 5,400 850 Climbing Boston Center
Sat 05:21:54 PM 46.5631 -68.1431 196° South 132 152 6,200 850 Climbing Boston Center
Sat 05:22:54 PM 46.5281 -68.1578 197° South 132 152 7,100 850 Climbing Boston Center
Sat 05:23:54 PM 46.4933 -68.1728 194° South 132 152 7,900 450 Climbing Boston Center
Sat 05:24:54 PM 46.4522 -68.1878 197° South 140 161 8,000 50 Climbing Boston Center
Sat 05:25:54 PM 46.4111 -68.2061 194° South 152 175 8,000  Level Boston Center
Sat 05:26:54 PM 46.3681 -68.2214 196° South 162 186 8,000  Level Boston Center
Sat 05:27:54 PM 46.3247 -68.2394 193° South 162 186 8,000  Level Boston Center
Sat 05:28:54 PM 46.2797 -68.2550 200° South 162 186 8,000  Level Boston Center
Sat 05:29:54 PM 46.2386 -68.2761 191° South 162 186 8,000  Level Boston Center
Sat 05:30:54 PM 46.1953 -68.2881 196° South 162 186 8,000  Level Boston Center
Sat 05:31:54 PM 46.1503 -68.3064 196° South 162 186 8,000  Level Boston Center
Sat 05:32:54 PM 46.1069 -68.3247 195° South 162 186 8,000  Level Boston Center
Sat 05:33:54 PM 46.0597 -68.3431 196° South 167 192 8,000  Level Boston Center
Sat 05:34:54 PM 46.0147 -68.3611 196° South 167 192 8,000  Level Boston Center
Sat 05:35:54 PM 45.9694 -68.3794 194° South 167 192 8,000  Level Boston Center
Sat 05:36:54 PM 45.9261 -68.3944 197° South 167 192 8,000  Level Boston Center
Sat 05:37:54 PM 45.8789 -68.4158 196° South 167 192 8,000  Level Boston Center
Sat 05:38:54 PM 45.8339 -68.4339 193° South 167 192 8,000  Level Boston Center
Sat 05:39:54 PM 45.7864 -68.4492 195° South 167 192 8,000  Level Boston Center
Sat 05:40:54 PM 45.7411 -68.4669 201° Southwest 167 192 8,000  Level Boston Center
Sat 05:41:54 PM 45.6983 -68.4908 195° South 167 192 8,000  Level Boston Center
Sat 05:42:54 PM 45.6508 -68.5089 196° South 172 198 8,000  Level Boston Center
Sat 05:43:54 PM 45.6078 -68.5267 196° South 172 198 8,000  Level Boston Center
Sat 05:44:54 PM 45.5625 -68.5447 192° South 172 198 8,000  Level Boston Center
Sat 05:45:54 PM 45.5150 -68.5597 199° South 172 198 8,000  Level Boston Center
Sat 05:46:54 PM 45.4719 -68.5806 193° South 172 198 8,000  Level Boston Center
Sat 05:47:54 PM 45.4267 -68.5953 195° South 172 198 8,000  Level Boston Center
Sat 05:48:54 PM 45.3814 -68.6131 203° Southwest 172 198 8,000  Level Boston Center
Sat 05:49:54 PM 45.3386 -68.6394 212° Southwest 172 198 8,000  Level Boston Center
Sat 05:50:54 PM 45.3022 -68.6714 213° Southwest 165 190 8,000  Level Boston Center
Sat 05:51:54 PM 45.2636 -68.7064 213° Southwest 165 190 8,000  Level Boston Center
Sat 05:52:54 PM 45.2253 -68.7414 206° Southwest 165 190 8,000 -300 Level Boston Center
Sat 05:53:54 PM 45.1822 -68.7706 204° Southwest 165 190 7,400 -650 Descending Boston Center
Sat 05:54:54 PM 45.1353 -68.8000 205° Southwest 178 205 6,700 -750 Descending Boston Center
Sat 05:55:54 PM 45.0906 -68.8294 208° Southwest 184 212 5,900 -900 Descending Boston Center
Sat 05:56:54 PM 45.0436 -68.8647 214° Southwest 184 212 4,900 -1,000 Descending Boston Center
Sat 05:57:54 PM 44.9969 -68.9086 216° Southwest 184 212 3,900 -1,050 Descending Boston Center
Sat 05:58:54 PM 44.9606 -68.9461 221° Southwest 179 206 2,800 -700 Descending Boston Center
Sat 05:59:54 PM 44.9306 -68.9831 169° South 166 191 2,500 -150 Descending Boston Center
Sat 06:00:54 PM 44.9031 -68.9758 130° Southeast 110 127 2,500 -150 Level Boston Center
Sat 06:01:54 PM 44.8811 -68.9389 130° Southeast 101 116 2,200 -300 Descending Boston Center

Login

Don't have an account? Register now (free) for customized features, flight alerts, and more!